createdAt,value
2024-05-09T00:00:52.738Z,12.90
2024-05-09T00:06:15.656Z,13.70
2024-05-09T00:11:20.310Z,12.20
2024-05-09T00:16:23.211Z,15.00
2024-05-09T00:21:25.836Z,11.40
2024-05-09T00:26:28.641Z,10.40
2024-05-09T00:31:31.375Z,10.70
2024-05-09T00:36:34.048Z,14.80
2024-05-09T00:41:36.960Z,11.90
2024-05-09T00:46:39.968Z,10.90
2024-05-09T00:51:42.910Z,9.20
2024-05-09T00:56:46.731Z,8.30
2024-05-09T01:01:49.883Z,10.00
2024-05-09T01:06:52.706Z,9.80
2024-05-09T01:11:55.475Z,12.30
2024-05-09T01:16:58.300Z,7.40
2024-05-09T01:22:01.244Z,9.20
2024-05-09T01:27:04.302Z,10.00
2024-05-09T01:32:07.319Z,10.70
2024-05-09T01:37:10.177Z,10.80
2024-05-09T01:42:13.211Z,12.00
2024-05-09T01:47:16.072Z,9.80
2024-05-09T01:52:18.721Z,12.50
2024-05-09T01:57:21.725Z,10.40
2024-05-09T02:02:24.541Z,9.10
2024-05-09T02:07:27.371Z,8.80
2024-05-09T02:12:30.085Z,9.40
2024-05-09T02:17:33.068Z,8.00
2024-05-09T02:22:35.981Z,11.80
2024-05-09T02:27:38.651Z,10.50
2024-05-09T02:32:41.690Z,10.30
2024-05-09T02:37:44.719Z,12.30
2024-05-09T02:42:47.630Z,11.20
2024-05-09T02:47:50.567Z,11.90
2024-05-09T02:52:53.543Z,12.90
2024-05-09T02:57:56.258Z,13.50
2024-05-09T03:02:59.444Z,9.60
2024-05-09T03:08:02.523Z,17.90
2024-05-09T03:13:07.712Z,11.10
2024-05-09T03:18:11.369Z,9.30
2024-05-09T03:23:14.690Z,9.00
2024-05-09T03:28:17.354Z,8.80
2024-05-09T03:33:20.870Z,10.80
2024-05-09T03:38:24.116Z,11.20
2024-05-09T03:43:26.888Z,9.70
2024-05-09T03:48:29.738Z,10.60
2024-05-09T03:53:32.777Z,10.20
2024-05-09T03:58:35.593Z,11.20
2024-05-09T04:03:39.452Z,14.90
2024-05-09T04:08:42.493Z,13.30
2024-05-09T04:13:45.427Z,13.20
2024-05-09T04:18:48.492Z,14.30
2024-05-09T04:23:51.429Z,13.50
2024-05-09T04:28:54.104Z,13.10
2024-05-09T04:33:57.051Z,11.30
2024-05-09T04:39:00.133Z,15.10
2024-05-09T04:44:03.110Z,11.20
2024-05-09T04:49:06.139Z,13.20
2024-05-09T04:54:15.611Z,12.90
2024-05-09T04:59:24.731Z,15.30
2024-05-09T05:04:28.095Z,12.00
2024-05-09T05:09:31.082Z,14.50
2024-05-09T05:14:33.900Z,14.10
2024-05-09T05:19:36.629Z,15.80
2024-05-09T05:24:39.430Z,10.50
2024-05-09T05:29:42.214Z,11.40
2024-05-09T05:34:45.037Z,33.40
2024-05-09T05:39:47.856Z,10.90
2024-05-09T05:44:50.655Z,14.60
2024-05-09T05:49:53.426Z,15.90
2024-05-09T05:54:56.082Z,12.90
2024-05-09T05:59:58.844Z,17.20
2024-05-09T06:05:03.032Z,15.60
2024-05-09T06:10:11.450Z,11.80
2024-05-09T06:15:17.006Z,12.10
2024-05-09T06:20:27.797Z,14.40
2024-05-09T06:25:38.387Z,17.70
2024-05-09T06:30:42.682Z,18.40
2024-05-09T06:35:46.489Z,13.60
2024-05-09T06:40:49.572Z,15.20
2024-05-09T06:45:53.030Z,18.10
2024-05-09T06:50:56.020Z,18.40
2024-05-09T06:55:58.866Z,20.40
2024-05-09T07:01:01.765Z,11.30
2024-05-09T07:06:04.944Z,19.40
2024-05-09T07:11:07.991Z,12.20
2024-05-09T07:16:10.772Z,11.20
2024-05-09T07:21:13.746Z,11.10
2024-05-09T07:26:17.787Z,11.20
2024-05-09T07:31:20.592Z,8.70
2024-05-09T07:36:23.419Z,8.40
2024-05-09T07:41:26.222Z,8.60
2024-05-09T07:47:36.846Z,8.20
2024-05-09T07:53:20.924Z,7.60
2024-05-09T07:57:14.693Z,6.30
2024-05-09T08:02:17.650Z,5.30
2024-05-09T08:07:20.920Z,6.50
2024-05-09T08:12:23.577Z,5.70
2024-05-09T08:17:26.383Z,5.10
2024-05-09T08:22:32.029Z,6.60
2024-05-09T08:27:34.762Z,10.30
2024-05-09T08:32:40.411Z,7.20
2024-05-09T08:37:43.616Z,12.20
2024-05-09T08:42:52.575Z,5.40
2024-05-09T08:47:59.363Z,7.20
2024-05-09T08:53:02.277Z,5.50
2024-05-09T08:58:07.301Z,5.80
2024-05-09T09:03:16.535Z,6.60
2024-05-09T09:08:20.492Z,7.70
2024-05-09T09:13:23.489Z,6.10
2024-05-09T09:18:27.948Z,7.90
2024-05-09T09:23:31.041Z,5.90
2024-05-09T09:28:37.454Z,8.60
2024-05-09T09:33:43.707Z,10.20
2024-05-09T09:38:48.316Z,8.40
2024-05-09T09:43:53.364Z,7.40
2024-05-09T09:48:56.616Z,6.30
2024-05-09T09:54:02.165Z,10.50
2024-05-09T09:59:07.429Z,7.90
2024-05-09T10:04:12.740Z,8.60
2024-05-09T10:09:18.139Z,6.70
2024-05-09T10:14:21.955Z,6.30
2024-05-09T10:19:28.493Z,7.30
2024-05-09T10:25:05.793Z,6.60
2024-05-09T10:30:14.620Z,5.60
2024-05-09T10:35:26.596Z,4.60
2024-05-09T10:40:32.026Z,5.60
2024-05-09T10:45:52.392Z,5.20
2024-05-09T10:51:38.598Z,5.60
2024-05-09T10:56:45.319Z,6.10
2024-05-09T11:01:50.764Z,4.10
2024-05-09T11:12:52.169Z,4.80
2024-05-09T11:18:26.073Z,5.90
2024-05-09T11:23:30.795Z,5.00
2024-05-09T11:28:35.557Z,5.70
2024-05-09T11:33:47.517Z,5.30
2024-05-09T11:38:54.504Z,6.00
2024-05-09T11:44:00.162Z,5.70
2024-05-09T11:49:03.402Z,7.20
2024-05-09T11:54:06.277Z,7.20
2024-05-09T11:59:12.026Z,5.40
2024-05-09T12:04:20.462Z,5.60
2024-05-09T12:09:28.789Z,7.70
2024-05-09T12:14:34.555Z,8.80
2024-05-09T12:20:33.071Z,5.40
2024-05-09T12:26:04.055Z,8.40
2024-05-09T12:31:09.292Z,5.00
2024-05-09T12:36:16.500Z,4.70
2024-05-09T12:46:53.343Z,8.00
2024-05-09T12:52:13.066Z,4.20
2024-05-09T12:57:25.629Z,5.50
2024-05-09T13:02:29.477Z,6.60
2024-05-09T13:07:37.701Z,5.60
2024-05-09T13:12:45.401Z,5.20
2024-05-09T13:17:48.317Z,5.90
2024-05-09T13:22:51.290Z,5.70
2024-05-09T13:28:43.099Z,5.10
2024-05-09T13:34:00.156Z,6.30
2024-05-09T13:39:08.456Z,5.00
2024-05-09T13:44:24.630Z,5.80
2024-05-09T13:49:41.278Z,6.00
2024-05-09T13:55:11.102Z,5.10
2024-05-09T14:00:27.128Z,4.50
2024-05-09T14:05:39.345Z,5.50
2024-05-09T14:10:46.934Z,4.40
2024-05-09T14:15:50.569Z,4.80
2024-05-09T14:20:53.485Z,6.10
2024-05-09T14:25:56.569Z,6.30
2024-05-09T14:31:01.228Z,4.80
2024-05-09T14:36:04.515Z,5.30
2024-05-09T14:41:09.551Z,4.60
2024-05-09T14:46:12.321Z,5.20
2024-05-09T14:51:16.385Z,5.70
2024-05-09T14:56:19.111Z,8.70
2024-05-09T15:01:23.927Z,5.00
2024-05-09T15:06:26.794Z,5.20
2024-05-09T15:11:29.665Z,5.00
2024-05-09T15:16:32.724Z,5.90
2024-05-09T15:21:35.652Z,4.70
2024-05-09T15:26:38.574Z,5.30
2024-05-09T15:31:41.382Z,6.00
2024-05-09T15:36:47.887Z,7.40
2024-05-09T15:41:56.401Z,5.60
2024-05-09T15:46:59.128Z,5.20
2024-05-09T15:52:01.973Z,4.60
2024-05-09T15:57:05.452Z,6.60
2024-05-09T16:02:11.294Z,5.00
2024-05-09T16:07:14.548Z,5.50
2024-05-09T16:12:17.280Z,5.50
2024-05-09T16:17:20.142Z,8.10
2024-05-09T16:22:23.134Z,6.30
2024-05-09T16:27:26.558Z,4.70
2024-05-09T16:32:29.520Z,6.50
2024-05-09T16:37:32.552Z,7.30
2024-05-09T16:42:35.296Z,5.90
2024-05-09T16:47:38.464Z,8.00
2024-05-09T16:52:41.483Z,5.70
2024-05-09T16:57:44.428Z,6.50
2024-05-09T17:02:47.236Z,8.00
2024-05-09T17:07:50.864Z,8.40
2024-05-09T17:12:53.596Z,6.60
2024-05-09T17:17:56.686Z,5.00
2024-05-09T17:22:59.464Z,6.70
2024-05-09T17:28:07.139Z,7.10
2024-05-09T17:33:20.411Z,9.10
2024-05-09T17:38:23.731Z,6.00
2024-05-09T17:43:26.629Z,6.80
2024-05-09T17:48:29.686Z,5.90
2024-05-09T17:53:32.414Z,6.20
2024-05-09T17:58:35.389Z,6.40
2024-05-09T18:03:39.473Z,6.20
2024-05-09T18:08:42.659Z,9.20
2024-05-09T18:13:47.251Z,10.20
2024-05-09T18:18:50.361Z,7.30
2024-05-09T18:23:55.475Z,7.00
2024-05-09T18:29:01.950Z,9.00
2024-05-09T18:34:05.542Z,7.60
2024-05-09T18:39:08.907Z,11.80
2024-05-09T18:44:11.685Z,15.00
2024-05-09T18:49:14.660Z,10.00
2024-05-09T18:54:17.578Z,12.50
2024-05-09T18:59:21.045Z,14.00
2024-05-09T19:04:24.191Z,16.10
2024-05-09T19:09:27.103Z,10.10
2024-05-09T19:14:29.925Z,11.50
2024-05-09T19:19:32.934Z,11.80
2024-05-09T19:24:35.903Z,10.30
2024-05-09T19:29:38.649Z,16.00
2024-05-09T19:34:44.749Z,13.90
2024-05-09T19:39:47.563Z,12.40
2024-05-09T19:44:50.436Z,13.70
2024-05-09T19:49:53.273Z,17.60
2024-05-09T19:54:55.946Z,13.20
2024-05-09T19:59:59.000Z,10.30
2024-05-09T20:05:03.475Z,14.70
2024-05-09T20:10:10.573Z,15.60
2024-05-09T20:15:19.190Z,15.00
2024-05-09T20:20:32.203Z,13.70
2024-05-09T20:25:41.392Z,15.10
2024-05-09T20:30:44.283Z,19.30
2024-05-09T20:35:47.018Z,18.10
2024-05-09T20:40:49.766Z,18.20
2024-05-09T20:45:52.514Z,24.10
2024-05-09T20:50:55.242Z,40.90
2024-05-09T20:55:57.949Z,32.60
2024-05-09T21:01:00.766Z,19.10
2024-05-09T21:06:03.698Z,21.70
2024-05-09T21:11:07.506Z,18.00
2024-05-09T21:16:10.293Z,19.30
2024-05-09T21:21:13.059Z,16.00
2024-05-09T21:26:17.227Z,17.00
2024-05-09T21:31:20.008Z,15.40
2024-05-09T21:36:22.825Z,16.40
2024-05-09T21:41:25.523Z,19.30
2024-05-09T21:46:28.376Z,21.20
2024-05-09T21:51:31.885Z,18.00
2024-05-09T21:56:34.736Z,20.30
2024-05-09T22:01:37.709Z,18.50
2024-05-09T22:06:40.498Z,19.30
2024-05-09T22:11:43.379Z,18.00
2024-05-09T22:16:46.226Z,16.40
2024-05-09T22:21:49.069Z,19.70
2024-05-09T22:26:53.581Z,20.20
2024-05-09T22:31:56.320Z,17.50
2024-05-09T22:36:59.066Z,17.00
2024-05-09T22:42:01.723Z,16.60
2024-05-09T22:47:04.624Z,17.60
2024-05-09T22:52:07.602Z,24.60
2024-05-09T22:57:10.528Z,22.30
2024-05-09T23:02:13.443Z,18.80
2024-05-09T23:07:16.657Z,15.30
2024-05-09T23:12:19.686Z,15.60
2024-05-09T23:17:22.435Z,19.80
2024-05-09T23:22:25.467Z,14.40
2024-05-09T23:27:28.309Z,19.20
2024-05-09T23:32:31.091Z,15.10
2024-05-09T23:37:33.768Z,19.70
2024-05-09T23:42:36.586Z,18.40
2024-05-09T23:47:39.458Z,19.10
2024-05-09T23:52:42.256Z,15.50
2024-05-09T23:57:45.142Z,14.50
